Time;durP1;ratioP1;P1;durP2;ratioP2;P2;SDS_P1;SDS_P2;PMS_P1;PMS_P2;Temp;Humidity;BMP_temperature;BMP_pressure;BME280_temperature;BME280_humidity;BME280_pressure;Samples;Min_cycle;Max_cycle;Signal;HPM_P1;HPM_P2
2024/01/04 00:00:31;;;;;;;2.37;0.97;;;;;;;;;;5093251;28;20538;-59
2024/01/04 00:02:59;;;;;;;3.40;3.10;;;;;;;;;;5093097;28;20449;-60
2024/01/04 00:05:26;;;;;;;1.40;1.10;;;;;;;;;;5093420;28;20530;-59
2024/01/04 00:07:53;;;;;;;3.27;1.27;;;;;;;;;;5093257;28;20445;-60
2024/01/04 00:10:20;;;;;;;3.20;1.00;;;;;;;;;;5093261;28;20490;-59
2024/01/04 00:12:48;;;;;;;4.53;1.20;;;;;;;;;;5093492;28;20798;-59
2024/01/04 00:15:16;;;;;;;4.00;0.90;;;;;;;;;;5093010;28;20815;-60
2024/01/04 00:17:43;;;;;;;2.53;0.97;;;;;;;;;;5092998;28;20885;-60
2024/01/04 00:20:12;;;;;;;2.10;1.00;;;;;;;;;;5092389;28;20485;-59
2024/01/04 00:22:39;;;;;;;2.07;0.93;;;;;;;;;;5093318;28;20544;-59
2024/01/04 00:25:07;;;;;;;4.50;1.40;;;;;;;;;;5092996;28;20450;-60
2024/01/04 00:27:34;;;;;;;1.50;0.90;;;;;;;;;;5093030;28;20525;-59
2024/01/04 00:30:01;;;;;;;2.40;1.07;;;;;;;;;;5092838;28;20529;-59
2024/01/04 00:32:27;;;;;;;1.37;0.93;;;;;;;;;;5093084;28;20972;-59
2024/01/04 00:34:54;;;;;;;4.93;1.07;;;;;;;;;;5093063;28;20934;-58
2024/01/04 00:37:23;;;;;;;2.20;0.80;;;;;;;;;;5092980;28;20446;-60
2024/01/04 00:39:50;;;;;;;1.53;1.13;;;;;;;;;;5092882;28;20445;-59
2024/01/04 00:42:17;;;;;;;3.03;1.20;;;;;;;;;;5092868;28;21099;-60
2024/01/04 00:44:43;;;;;;;2.10;1.13;;;;;;;;;;5092733;28;20477;-60
2024/01/04 00:47:10;;;;;;;5.47;1.00;;;;;;;;;;5092985;28;20447;-59
2024/01/04 00:49:37;;;;;;;3.07;0.90;;;;;;;;;;5093041;28;20477;-59
2024/01/04 00:52:04;;;;;;;1.47;1.10;;;;;;;;;;5092791;28;20444;-60
2024/01/04 00:54:33;;;;;;;1.00;0.90;;;;;;;;;;5092494;28;20545;-59
2024/01/04 00:57:00;;;;;;;2.10;1.50;;;;;;;;;;5092595;28;20485;-58
2024/01/04 00:59:27;;;;;;;1.60;1.10;;;;;;;;;;5092608;28;20453;-59
2024/01/04 01:01:54;;;;;;;4.60;0.90;;;;;;;;;;5092570;28;21013;-59
2024/01/04 01:04:21;;;;;;;3.60;0.77;;;;;;;;;;5092673;28;20453;-60
2024/01/04 01:06:48;;;;;;;0.80;0.60;;;;;;;;;;5092661;28;20541;-60
2024/01/04 01:09:15;;;;;;;1.30;0.90;;;;;;;;;;5092536;28;20930;-60
2024/01/04 01:11:43;;;;;;;2.00;1.00;;;;;;;;;;5092411;28;20533;-60
2024/01/04 01:14:10;;;;;;;3.13;0.80;;;;;;;;;;5092676;28;20449;-59
2024/01/04 01:16:37;;;;;;;1.00;0.77;;;;;;;;;;5092654;28;20478;-60
2024/01/04 01:19:04;;;;;;;1.17;0.80;;;;;;;;;;5092783;28;20871;-60
2024/01/04 01:21:31;;;;;;;1.83;1.23;;;;;;;;;;5092581;28;20447;-60
2024/01/04 01:23:58;;;;;;;2.10;1.30;;;;;;;;;;5092449;28;20756;-59
2024/01/04 01:26:25;;;;;;;2.30;0.97;;;;;;;;;;5092370;28;21029;-60
2024/01/04 01:28:53;;;;;;;3.07;1.00;;;;;;;;;;5092553;28;20545;-59
2024/01/04 01:31:20;;;;;;;0.77;0.70;;;;;;;;;;5092900;28;20446;-60
2024/01/04 01:33:47;;;;;;;2.23;0.80;;;;;;;;;;5096131;28;20448;-59
2024/01/04 01:36:14;;;;;;;2.90;1.00;;;;;;;;;;5095837;28;20553;-60
2024/01/04 01:38:41;;;;;;;1.33;0.97;;;;;;;;;;5095863;28;20447;-60
2024/01/04 01:41:07;;;;;;;1.23;0.80;;;;;;;;;;5096080;28;20886;-60
2024/01/04 01:43:34;;;;;;;2.23;0.93;;;;;;;;;;5095931;28;20450;-60
2024/01/04 01:46:03;;;;;;;2.67;0.80;;;;;;;;;;5095849;28;20449;-60
2024/01/04 01:48:30;;;;;;;2.20;0.77;;;;;;;;;;5095708;28;20442;-60
2024/01/04 01:50:58;;;;;;;3.33;0.90;;;;;;;;;;5095656;28;20477;-59
2024/01/04 01:53:25;;;;;;;0.97;0.60;;;;;;;;;;5095533;28;20805;-60
2024/01/04 01:55:52;;;;;;;4.23;0.80;;;;;;;;;;5095350;28;20493;-60
2024/01/04 01:58:19;;;;;;;5.50;0.83;;;;;;;;;;5095840;28;20534;-58
2024/01/04 02:00:46;;;;;;;4.77;0.77;;;;;;;;;;5095575;28;20442;-60
2024/01/04 02:03:14;;;;;;;3.90;1.00;;;;;;;;;;5095373;28;20929;-60
2024/01/04 02:05:41;;;;;;;1.40;0.70;;;;;;;;;;5095382;28;20442;-60
2024/01/04 02:08:09;;;;;;;0.80;0.70;;;;;;;;;;5095264;28;20438;-60
2024/01/04 02:10:36;;;;;;;2.93;0.70;;;;;;;;;;5095443;28;20503;-59
2024/01/04 02:13:03;;;;;;;1.00;0.80;;;;;;;;;;5095330;28;20534;-60
2024/01/04 02:15:30;;;;;;;1.23;0.60;;;;;;;;;;5095132;28;20864;-60
2024/01/04 02:17:57;;;;;;;3.27;0.83;;;;;;;;;;5095159;28;20449;-59
2024/01/04 02:20:25;;;;;;;1.07;0.70;;;;;;;;;;5095062;28;20508;-61
2024/01/04 02:22:53;;;;;;;1.07;0.70;;;;;;;;;;5095181;28;20445;-60
2024/01/04 02:25:20;;;;;;;0.80;0.50;;;;;;;;;;5095046;28;20512;-60
2024/01/04 02:27:47;;;;;;;1.07;0.60;;;;;;;;;;5095098;28;20810;-60
2024/01/04 02:30:14;;;;;;;1.57;0.70;;;;;;;;;;5094904;28;20526;-60
2024/01/04 02:32:41;;;;;;;1.37;0.80;;;;;;;;;;5094933;28;20977;-61
2024/01/04 02:35:08;;;;;;;3.10;0.87;;;;;;;;;;5094703;28;20525;-58
2024/01/04 02:37:35;;;;;;;1.00;0.60;;;;;;;;;;5094870;28;20569;-60
2024/01/04 02:40:04;;;;;;;1.30;0.60;;;;;;;;;;5094858;28;20459;-60
2024/01/04 02:42:32;;;;;;;3.13;0.70;;;;;;;;;;5094307;28;20453;-60
2024/01/04 02:44:58;;;;;;;1.13;0.80;;;;;;;;;;5094690;28;20814;-60
2024/01/04 02:47:25;;;;;;;2.50;0.60;;;;;;;;;;5094566;28;20542;-60
2024/01/04 02:49:52;;;;;;;1.77;0.70;;;;;;;;;;5094484;28;20446;-61
2024/01/04 02:52:19;;;;;;;1.57;0.70;;;;;;;;;;5094604;28;20453;-60
2024/01/04 02:54:46;;;;;;;3.43;0.80;;;;;;;;;;5094397;28;20505;-60
2024/01/04 02:57:15;;;;;;;1.70;0.70;;;;;;;;;;5094318;28;20570;-60
2024/01/04 02:59:42;;;;;;;2.17;0.80;;;;;;;;;;5094431;28;20853;-60
2024/01/04 03:02:08;;;;;;;0.70;0.70;;;;;;;;;;5094183;28;20534;-59
2024/01/04 03:04:36;;;;;;;0.97;0.67;;;;;;;;;;5094432;28;20533;-59
2024/01/04 03:07:03;;;;;;;1.23;0.60;;;;;;;;;;5094669;28;20443;-60
2024/01/04 03:09:30;;;;;;;1.53;0.70;;;;;;;;;;5094243;28;20537;-60
2024/01/04 03:11:57;;;;;;;1.23;0.70;;;;;;;;;;5094049;28;20453;-60
2024/01/04 03:14:25;;;;;;;1.67;0.97;;;;;;;;;;5093987;28;20533;-60
2024/01/04 03:16:52;;;;;;;2.33;0.77;;;;;;;;;;5093835;28;20478;-60
2024/01/04 03:19:19;;;;;;;2.03;0.70;;;;;;;;;;5094090;28;20525;-61
2024/01/04 03:21:46;;;;;;;3.53;1.00;;;;;;;;;;5094060;28;20469;-60
2024/01/04 03:24:13;;;;;;;2.20;0.87;;;;;;;;;;5093917;28;20453;-60
2024/01/04 03:26:39;;;;;;;3.20;0.73;;;;;;;;;;5093852;28;20538;-59
2024/01/04 03:29:06;;;;;;;0.80;0.70;;;;;;;;;;5093767;28;20438;-60
2024/01/04 03:31:35;;;;;;;1.80;1.27;;;;;;;;;;5093687;28;20444;-58
2024/01/04 03:34:01;;;;;;;0.90;0.73;;;;;;;;;;5093642;28;20937;-58
2024/01/04 03:36:28;;;;;;;1.57;0.60;;;;;;;;;;5093714;28;20565;-59
2024/01/04 03:38:56;;;;;;;1.43;0.87;;;;;;;;;;5093628;28;20537;-59
2024/01/04 03:41:23;;;;;;;0.90;0.70;;;;;;;;;;5093641;28;20447;-59
2024/01/04 03:43:50;;;;;;;1.10;0.67;;;;;;;;;;5093497;28;20507;-58
2024/01/04 03:46:17;;;;;;;0.80;0.70;;;;;;;;;;5093481;28;20434;-60
2024/01/04 03:48:45;;;;;;;1.27;0.60;;;;;;;;;;5093675;28;20856;-60
2024/01/04 03:51:12;;;;;;;1.30;0.60;;;;;;;;;;5093533;28;20508;-59
2024/01/04 03:53:39;;;;;;;1.80;0.93;;;;;;;;;;5092922;28;20442;-59
2024/01/04 03:56:06;;;;;;;1.67;0.80;;;;;;;;;;5092882;28;20450;-58
2024/01/04 03:58:34;;;;;;;0.90;0.90;;;;;;;;;;5093215;28;20444;-59
2024/01/04 04:01:02;;;;;;;0.70;0.57;;;;;;;;;;5093432;28;20481;-59
2024/01/04 04:03:29;;;;;;;1.67;0.80;;;;;;;;;;5093337;28;20473;-59
2024/01/04 04:05:57;;;;;;;1.70;0.60;;;;;;;;;;5093433;28;20537;-58
2024/01/04 04:08:24;;;;;;;2.10;0.70;;;;;;;;;;5093156;28;20538;-59
2024/01/04 04:10:51;;;;;;;1.10;0.70;;;;;;;;;;5092990;28;20993;-60
2024/01/04 04:13:18;;;;;;;0.97;0.63;;;;;;;;;;5093292;28;20442;-58
2024/01/04 04:15:45;;;;;;;2.50;0.67;;;;;;;;;;5092910;28;20533;-59
2024/01/04 04:18:12;;;;;;;1.00;0.53;;;;;;;;;;5093046;28;20611;-60
2024/01/04 04:20:39;;;;;;;1.60;0.63;;;;;;;;;;5093029;28;20530;-59
2024/01/04 04:23:07;;;;;;;3.20;0.93;;;;;;;;;;5093030;28;20445;-59
2024/01/04 04:25:36;;;;;;;2.63;0.70;;;;;;;;;;5092937;28;20516;-60
2024/01/04 04:28:03;;;;;;;1.03;0.87;;;;;;;;;;5093144;28;20537;-58
2024/01/04 04:30:30;;;;;;;2.60;0.70;;;;;;;;;;5093100;28;20451;-59
2024/01/04 04:32:57;;;;;;;1.37;0.60;;;;;;;;;;5092968;28;20461;-58
2024/01/04 04:35:24;;;;;;;1.80;0.63;;;;;;;;;;5092951;28;20442;-59
2024/01/04 04:37:51;;;;;;;1.50;0.83;;;;;;;;;;5092760;28;20918;-59
2024/01/04 04:40:19;;;;;;;1.27;0.80;;;;;;;;;;5092752;28;20453;-60
2024/01/04 04:42:46;;;;;;;0.73;0.67;;;;;;;;;;5092988;28;20533;-59
2024/01/04 04:45:13;;;;;;;4.40;0.70;;;;;;;;;;5092921;28;20442;-59
2024/01/04 04:47:40;;;;;;;1.00;0.70;;;;;;;;;;5092893;28;20442;-59
2024/01/04 04:50:08;;;;;;;1.10;0.60;;;;;;;;;;5092812;28;20533;-59
2024/01/04 04:52:34;;;;;;;1.00;0.70;;;;;;;;;;5092679;28;20869;-58
2024/01/04 04:55:02;;;;;;;0.70;0.57;;;;;;;;;;5092394;28;20569;-60
2024/01/04 04:57:30;;;;;;;1.47;0.70;;;;;;;;;;5092798;28;20482;-59
2024/01/04 04:59:57;;;;;;;2.90;0.70;;;;;;;;;;5092804;28;20537;-59
2024/01/04 05:02:24;;;;;;;2.70;0.60;;;;;;;;;;5092680;28;20447;-59
2024/01/04 05:04:51;;;;;;;1.80;0.70;;;;;;;;;;5092651;28;20448;-59
2024/01/04 05:07:17;;;;;;;0.80;0.60;;;;;;;;;;5096102;28;20446;-58
2024/01/04 05:09:44;;;;;;;0.77;0.60;;;;;;;;;;5096685;28;20485;-58
2024/01/04 05:12:11;;;;;;;2.33;0.90;;;;;;;;;;5096348;28;20971;-59
2024/01/04 05:14:39;;;;;;;0.70;0.70;;;;;;;;;;5096490;28;20537;-59
2024/01/04 05:17:06;;;;;;;0.70;0.70;;;;;;;;;;5096213;28;21145;-58
2024/01/04 05:19:33;;;;;;;0.70;0.50;;;;;;;;;;5096285;28;20476;-59
2024/01/04 05:22:03;;;;;;;0.80;0.73;;;;;;;;;;5096198;28;20528;-60
2024/01/04 05:24:30;;;;;;;0.80;0.60;;;;;;;;;;5096363;28;20434;-58
2024/01/04 05:26:57;;;;;;;2.00;0.60;;;;;;;;;;5096269;28;20442;-60
2024/01/04 05:29:25;;;;;;;1.00;0.77;;;;;;;;;;5096193;28;20473;-60
2024/01/04 05:31:54;;;;;;;0.70;0.60;;;;;;;;;;5096110;28;20438;-59
2024/01/04 05:34:20;;;;;;;1.17;0.90;;;;;;;;;;5095925;28;20445;-60
2024/01/04 05:36:47;;;;;;;1.73;0.70;;;;;;;;;;5095993;28;20469;-58
2024/01/04 05:39:14;;;;;;;1.23;0.90;;;;;;;;;;5096034;28;20442;-59
2024/01/04 05:41:41;;;;;;;0.83;0.70;;;;;;;;;;5095895;28;20452;-59
2024/01/04 05:44:08;;;;;;;0.70;0.70;;;;;;;;;;5095849;28;20533;-59
2024/01/04 05:46:35;;;;;;;0.77;0.70;;;;;;;;;;5095736;28;20481;-59
2024/01/04 05:49:03;;;;;;;0.97;0.73;;;;;;;;;;5095560;28;20452;-59
2024/01/04 05:51:30;;;;;;;0.70;0.70;;;;;;;;;;5095561;28;20952;-59
2024/01/04 05:53:57;;;;;;;1.73;0.70;;;;;;;;;;5095673;28;20531;-58
2024/01/04 05:56:24;;;;;;;3.63;0.90;;;;;;;;;;5095521;28;20446;-57
2024/01/04 05:58:51;;;;;;;1.17;0.70;;;;;;;;;;5095518;28;20449;-59
2024/01/04 06:01:18;;;;;;;0.67;0.60;;;;;;;;;;5095359;28;20541;-58
2024/01/04 06:03:44;;;;;;;1.43;0.50;;;;;;;;;;5095544;28;20858;-59
2024/01/04 06:06:15;;;;;;;0.80;0.57;;;;;;;;;;5095457;28;20496;-59
2024/01/04 06:08:42;;;;;;;1.43;0.70;;;;;;;;;;5095240;28;20817;-58
2024/01/04 06:11:09;;;;;;;1.10;1.00;;;;;;;;;;5095356;28;20447;-59
2024/01/04 06:13:36;;;;;;;1.17;0.70;;;;;;;;;;5095225;28;20454;-59
2024/01/04 06:16:05;;;;;;;1.23;0.70;;;;;;;;;;5095056;28;20478;-58
2024/01/04 06:18:32;;;;;;;3.13;0.90;;;;;;;;;;5094242;28;20489;-58
2024/01/04 06:20:59;;;;;;;0.70;0.60;;;;;;;;;;5095177;28;20994;-58
2024/01/04 06:23:27;;;;;;;0.90;0.80;;;;;;;;;;5095161;28;20533;-58
2024/01/04 06:25:54;;;;;;;0.80;0.77;;;;;;;;;;5095058;28;20532;-58
2024/01/04 06:28:21;;;;;;;1.30;0.90;;;;;;;;;;5094799;28;21050;-59
2024/01/04 06:30:48;;;;;;;1.80;0.90;;;;;;;;;;5094804;28;20438;-59
2024/01/04 06:33:15;;;;;;;0.80;0.80;;;;;;;;;;5094982;28;20438;-59
2024/01/04 06:35:43;;;;;;;1.20;0.80;;;;;;;;;;5094875;28;20438;-59
2024/01/04 06:38:10;;;;;;;1.77;1.00;;;;;;;;;;5094741;28;20567;-59
2024/01/04 06:40:38;;;;;;;1.80;1.00;;;;;;;;;;5094544;28;20442;-59
2024/01/04 06:43:08;;;;;;;3.33;0.80;;;;;;;;;;5094478;28;20442;-59
2024/01/04 06:45:35;;;;;;;2.60;0.80;;;;;;;;;;5094765;28;20531;-60
2024/01/04 06:48:02;;;;;;;1.00;0.80;;;;;;;;;;5094639;28;20458;-60
2024/01/04 06:50:29;;;;;;;1.10;1.00;;;;;;;;;;5094587;28;20534;-59
2024/01/04 06:52:56;;;;;;;1.97;0.90;;;;;;;;;;5094390;28;20857;-58
2024/01/04 06:55:23;;;;;;;1.47;0.90;;;;;;;;;;5094091;28;21016;-60
2024/01/04 06:57:52;;;;;;;1.00;0.90;;;;;;;;;;5094433;28;20490;-57
2024/01/04 07:00:19;;;;;;;0.80;0.80;;;;;;;;;;5094414;28;20438;-59
2024/01/04 07:02:46;;;;;;;1.50;0.83;;;;;;;;;;5094298;28;20534;-59
2024/01/04 07:05:13;;;;;;;2.97;0.90;;;;;;;;;;5094176;28;20446;-59
2024/01/04 07:07:40;;;;;;;1.30;1.20;;;;;;;;;;5094180;28;20538;-59
2024/01/04 07:10:07;;;;;;;1.20;1.10;;;;;;;;;;5094022;28;20443;-59
2024/01/04 07:12:34;;;;;;;1.57;0.80;;;;;;;;;;5094038;28;21024;-59
2024/01/04 07:15:02;;;;;;;1.20;0.90;;;;;;;;;;5094183;28;20567;-58
2024/01/04 07:17:29;;;;;;;1.43;0.80;;;;;;;;;;5093864;28;20482;-58
2024/01/04 07:19:56;;;;;;;1.43;1.10;;;;;;;;;;5093964;28;20534;-58
2024/01/04 07:22:23;;;;;;;0.93;0.80;;;;;;;;;;5093902;28;20525;-59
2024/01/04 07:24:50;;;;;;;1.67;0.80;;;;;;;;;;5093850;28;20446;-57
2024/01/04 07:27:17;;;;;;;0.97;0.87;;;;;;;;;;5093879;28;20458;-58
2024/01/04 07:29:44;;;;;;;1.10;1.00;;;;;;;;;;5093782;28;20538;-60
2024/01/04 07:32:15;;;;;;;1.23;0.90;;;;;;;;;;5093720;28;20500;-59
2024/01/04 07:34:42;;;;;;;1.07;0.97;;;;;;;;;;5093475;28;20439;-59
2024/01/04 07:37:09;;;;;;;1.17;0.80;;;;;;;;;;5093355;28;20513;-57
2024/01/04 07:39:36;;;;;;;0.90;0.80;;;;;;;;;;5093669;28;20538;-58
2024/01/04 07:42:03;;;;;;;0.80;0.70;;;;;;;;;;5093630;28;20529;-58
2024/01/04 07:44:30;;;;;;;0.70;0.70;;;;;;;;;;5093520;28;20453;-58
2024/01/04 07:46:57;;;;;;;1.00;0.60;;;;;;;;;;5093253;28;20980;-57
2024/01/04 07:49:26;;;;;;;0.60;0.50;;;;;;;;;;5093386;28;20564;-57
2024/01/04 07:51:53;;;;;;;1.00;0.60;;;;;;;;;;5093159;28;20534;-57
2024/01/04 07:54:19;;;;;;;0.70;0.60;;;;;;;;;;5093204;28;20496;-56
2024/01/04 07:56:46;;;;;;;0.80;0.60;;;;;;;;;;5093394;28;20533;-58
2024/01/04 07:59:14;;;;;;;0.90;0.60;;;;;;;;;;5093169;28;20470;-56
2024/01/04 08:01:41;;;;;;;0.90;0.70;;;;;;;;;;5093239;28;20453;-54
2024/01/04 08:04:08;;;;;;;0.83;0.70;;;;;;;;;;5093075;28;20443;-57
2024/01/04 08:06:36;;;;;;;0.70;0.60;;;;;;;;;;5093342;28;20854;-57
2024/01/04 08:09:04;;;;;;;0.80;0.70;;;;;;;;;;5093184;28;20478;-54
2024/01/04 08:11:31;;;;;;;1.47;1.13;;;;;;;;;;5092886;28;20442;-62
2024/01/04 08:13:58;;;;;;;0.80;0.70;;;;;;;;;;5084708;28;20522;-61
2024/01/04 08:16:25;;;;;;;0.80;0.70;;;;;;;;;;5072710;28;20435;-61
2024/01/04 08:18:52;;;;;;;0.93;0.80;;;;;;;;;;5071695;28;20887;-60
2024/01/04 08:21:19;;;;;;;0.90;0.70;;;;;;;;;;5072726;28;20439;-62
2024/01/04 08:23:50;;;;;;;0.77;0.77;;;;;;;;;;5072730;28;20470;-55
2024/01/04 08:26:17;;;;;;;0.80;0.80;;;;;;;;;;5072648;28;20471;-64
2024/01/04 08:28:44;;;;;;;2.20;0.80;;;;;;;;;;5072598;28;20446;-63
2024/01/04 08:31:11;;;;;;;2.00;1.90;;;;;;;;;;5072635;28;20493;-63
2024/01/04 08:33:38;;;;;;;2.10;1.90;;;;;;;;;;5072372;28;20549;-63
2024/01/04 08:36:05;;;;;;;1.63;0.90;;;;;;;;;;5072593;28;20542;-62
2024/01/04 08:38:32;;;;;;;1.20;0.77;;;;;;;;;;5072498;28;20545;-63
2024/01/04 08:41:02;;;;;;;2.10;0.87;;;;;;;;;;5074099;28;20443;-60
2024/01/04 08:43:29;;;;;;;1.37;0.90;;;;;;;;;;5076570;28;20447;-66
2024/01/04 08:45:55;;;;;;;2.20;0.83;;;;;;;;;;5076415;28;20538;-65
2024/01/04 08:48:22;;;;;;;1.10;0.80;;;;;;;;;;5076494;28;20449;-61
2024/01/04 08:50:49;;;;;;;0.70;0.70;;;;;;;;;;5076603;28;20545;-66
2024/01/04 08:53:20;;;;;;;1.47;0.80;;;;;;;;;;5076526;28;20625;-65
2024/01/04 08:55:47;;;;;;;1.33;0.70;;;;;;;;;;5076001;28;20475;-61
2024/01/04 08:58:15;;;;;;;1.43;0.80;;;;;;;;;;5076228;28;20491;-61
2024/01/04 09:00:42;;;;;;;1.30;0.70;;;;;;;;;;5076195;28;20542;-61
2024/01/04 09:03:09;;;;;;;1.93;0.80;;;;;;;;;;5076285;28;20447;-61
2024/01/04 09:05:36;;;;;;;0.80;0.73;;;;;;;;;;5076311;28;20450;-60
2024/01/04 09:08:04;;;;;;;0.80;0.70;;;;;;;;;;5076070;28;20454;-62
2024/01/04 09:10:32;;;;;;;1.57;1.30;;;;;;;;;;5076071;28;20447;-62
2024/01/04 09:12:59;;;;;;;1.00;1.00;;;;;;;;;;5075884;28;20454;-61
2024/01/04 09:15:26;;;;;;;0.90;0.60;;;;;;;;;;5076093;28;20501;-63
2024/01/04 09:17:54;;;;;;;0.80;0.80;;;;;;;;;;5075942;28;20467;-62
2024/01/04 09:20:21;;;;;;;3.00;0.77;;;;;;;;;;5075954;28;20505;-60
2024/01/04 09:22:48;;;;;;;0.93;0.80;;;;;;;;;;5075782;28;20443;-62
2024/01/04 09:25:15;;;;;;;0.80;0.77;;;;;;;;;;5075721;28;20807;-63
2024/01/04 09:27:42;;;;;;;1.20;1.10;;;;;;;;;;5075594;28;20541;-60
2024/01/04 09:30:10;;;;;;;0.90;0.80;;;;;;;;;;5075854;28;20447;-64
2024/01/04 09:32:38;;;;;;;1.97;1.10;;;;;;;;;;5075768;28;20542;-62
2024/01/04 09:35:06;;;;;;;0.83;0.80;;;;;;;;;;5075591;28;20534;-60
2024/01/04 09:37:33;;;;;;;1.17;0.73;;;;;;;;;;5075480;28;20443;-61
2024/01/04 09:40:00;;;;;;;1.37;0.70;;;;;;;;;;5075375;28;20838;-61
2024/01/04 09:42:28;;;;;;;1.10;0.60;;;;;;;;;;5075485;28;20796;-62
2024/01/04 09:44:55;;;;;;;0.90;0.90;;;;;;;;;;5075317;28;20946;-61
2024/01/04 09:47:24;;;;;;;1.00;0.70;;;;;;;;;;5075425;28;20526;-60
2024/01/04 09:49:53;;;;;;;0.90;0.73;;;;;;;;;;5075260;28;20443;-61
2024/01/04 09:52:20;;;;;;;0.60;0.60;;;;;;;;;;5074032;28;20455;-61
2024/01/04 09:54:48;;;;;;;1.37;0.60;;;;;;;;;;5074750;28;20558;-62
2024/01/04 09:57:14;;;;;;;0.60;0.60;;;;;;;;;;5075093;28;20530;-61
2024/01/04 09:59:42;;;;;;;1.63;0.73;;;;;;;;;;5075066;28;20550;-61
2024/01/04 10:02:12;;;;;;;0.70;0.60;;;;;;;;;;5075125;28;20447;-61
2024/01/04 10:04:40;;;;;;;0.90;0.80;;;;;;;;;;5075331;28;20450;-60
2024/01/04 10:07:11;;;;;;;1.63;0.70;;;;;;;;;;5074964;28;20439;-61
2024/01/04 10:09:41;;;;;;;0.80;0.70;;;;;;;;;;5075145;28;20647;-61
2024/01/04 10:12:08;;;;;;;0.67;0.67;;;;;;;;;;5074958;28;21011;-62
2024/01/04 10:14:36;;;;;;;0.80;0.80;;;;;;;;;;5074884;28;20501;-60
2024/01/04 10:17:03;;;;;;;0.80;0.80;;;;;;;;;;5074894;28;20830;-62
2024/01/04 10:19:31;;;;;;;2.90;0.70;;;;;;;;;;5074765;28;20726;-62
2024/01/04 10:22:02;;;;;;;0.80;0.70;;;;;;;;;;5074821;28;20562;-61
2024/01/04 10:24:31;;;;;;;1.47;0.70;;;;;;;;;;5074872;28;20189;-60
2024/01/04 10:26:58;;;;;;;0.70;0.60;;;;;;;;;;5074709;28;20538;-63
2024/01/04 10:29:26;;;;;;;1.27;0.73;;;;;;;;;;5074512;28;20443;-61
2024/01/04 10:31:59;;;;;;;0.90;0.70;;;;;;;;;;5074590;28;20788;-60
2024/01/04 10:34:26;;;;;;;0.80;0.60;;;;;;;;;;5074454;28;20277;-61
2024/01/04 10:36:54;;;;;;;0.90;0.80;;;;;;;;;;5074700;28;20444;-61
2024/01/04 10:39:22;;;;;;;2.35;0.90;;;;;;;;;;5074494;28;20650;-61
2024/01/04 10:42:01;;;;;;;1.58;0.88;;;;;;;;;;5074513;28;20211;-60
2024/01/04 10:44:28;;;;;;;0.90;0.90;;;;;;;;;;5074389;28;20526;-60
2024/01/04 10:46:56;;;;;;;2.47;1.00;;;;;;;;;;5074112;28;20195;-61
2024/01/04 10:49:23;;;;;;;1.20;0.67;;;;;;;;;;5074478;28;20505;-59
2024/01/04 10:51:52;;;;;;;1.65;0.70;;;;;;;;;;5074339;28;20817;-60
2024/01/04 10:54:19;;;;;;;0.70;0.60;;;;;;;;;;5074149;28;20236;-62
2024/01/04 10:56:46;;;;;;;0.70;0.60;;;;;;;;;;5074020;28;20446;-64
2024/01/04 10:59:15;;;;;;;0.67;0.67;;;;;;;;;;5073868;28;20604;-61
2024/01/04 11:01:42;;;;;;;1.33;0.90;;;;;;;;;;5073509;28;20454;-61
2024/01/04 11:04:09;;;;;;;1.27;0.80;;;;;;;;;;5073555;28;20526;-61
2024/01/04 11:06:40;;;;;;;1.48;0.82;;;;;;;;;;5073817;28;20534;-62
2024/01/04 11:09:08;;;;;;;0.70;0.63;;;;;;;;;;5073911;28;20196;-62
2024/01/04 11:11:35;;;;;;;0.98;0.80;;;;;;;;;;5073699;28;20201;-61
2024/01/04 11:14:02;;;;;;;0.70;0.70;;;;;;;;;;5073635;28;21027;-61
2024/01/04 11:16:36;;;;;;;5.95;2.17;;;;;;;;;;5073754;28;20443;-63
2024/01/04 11:19:06;;;;;;;0.90;0.70;;;;;;;;;;5073542;28;20219;-64
2024/01/04 11:21:38;;;;;;;0.90;0.80;;;;;;;;;;5073616;28;20530;-61
2024/01/04 11:24:07;;;;;;;1.53;0.67;;;;;;;;;;5073400;28;20781;-61
2024/01/04 11:26:40;;;;;;;0.80;0.70;;;;;;;;;;5073418;28;20450;-62
2024/01/04 11:29:09;;;;;;;0.77;0.70;;;;;;;;;;5073635;28;20450;-56
2024/01/04 11:31:42;;;;;;;1.10;0.90;;;;;;;;;;5073408;28;20189;-62
2024/01/04 11:34:11;;;;;;;0.70;0.70;;;;;;;;;;5073458;28;20197;-63
2024/01/04 11:36:38;;;;;;;0.67;0.60;;;;;;;;;;5073302;28;20295;-61
2024/01/04 11:39:05;;;;;;;0.70;0.68;;;;;;;;;;5073024;28;20897;-61
2024/01/04 11:41:34;;;;;;;1.13;0.70;;;;;;;;;;5073378;28;20278;-63
2024/01/04 11:44:01;;;;;;;1.00;0.82;;;;;;;;;;5073230;28;20189;-62
2024/01/04 11:46:28;;;;;;;0.70;0.60;;;;;;;;;;5073066;28;20272;-63
2024/01/04 11:48:57;;;;;;;1.33;0.60;;;;;;;;;;5072990;28;20211;-61
2024/01/04 11:51:33;;;;;;;0.67;0.63;;;;;;;;;;5072957;28;20712;-61
2024/01/04 11:54:00;;;;;;;1.27;0.68;;;;;;;;;;5072743;28;20978;-61
2024/01/04 11:56:28;;;;;;;0.70;0.70;;;;;;;;;;5072963;28;20270;-60
2024/01/04 11:58:55;;;;;;;0.90;0.75;;;;;;;;;;5072994;28;20656;-61
2024/01/04 12:01:23;;;;;;;0.70;0.70;;;;;;;;;;5072740;28;20185;-60
2024/01/04 12:03:51;;;;;;;5.33;0.70;;;;;;;;;;5072762;28;20228;-61
2024/01/04 12:06:20;;;;;;;0.80;0.80;;;;;;;;;;5073051;28;20443;-60
2024/01/04 12:08:48;;;;;;;0.80;0.70;;;;;;;;;;5072923;28;20454;-62
2024/01/04 12:11:19;;;;;;;0.88;0.60;;;;;;;;;;5072686;28;20192;-62
2024/01/04 12:13:46;;;;;;;1.50;0.73;;;;;;;;;;5072791;28;20197;-63
2024/01/04 12:16:14;;;;;;;0.93;0.75;;;;;;;;;;5071965;28;20450;-60
2024/01/04 12:18:41;;;;;;;0.80;0.75;;;;;;;;;;5072563;28;20200;-60
2024/01/04 12:21:10;;;;;;;0.70;0.60;;;;;;;;;;5072918;28;20189;-61
2024/01/04 12:23:38;;;;;;;0.70;0.60;;;;;;;;;;5072678;28;20665;-60
2024/01/04 12:26:06;;;;;;;0.68;0.65;;;;;;;;;;5072773;28;20189;-59
2024/01/04 12:28:33;;;;;;;0.77;0.60;;;;;;;;;;5072717;28;20189;-60
2024/01/04 12:31:01;;;;;;;0.75;0.65;;;;;;;;;;5072399;28;20216;-61
2024/01/04 12:33:30;;;;;;;1.65;0.80;;;;;;;;;;5072535;28;20280;-61
2024/01/04 12:35:58;;;;;;;1.70;0.90;;;;;;;;;;5072753;28;20216;-60
2024/01/04 12:38:25;;;;;;;0.80;0.73;;;;;;;;;;5072742;28;20193;-60
2024/01/04 12:40:53;;;;;;;0.60;0.60;;;;;;;;;;5072505;28;20248;-60
2024/01/04 12:43:22;;;;;;;1.25;0.80;;;;;;;;;;5072436;28;20563;-58
2024/01/04 12:45:49;;;;;;;0.95;0.90;;;;;;;;;;5072400;28;20192;-56
2024/01/04 12:48:21;;;;;;;0.95;0.80;;;;;;;;;;5072505;28;20273;-58
2024/01/04 12:50:48;;;;;;;0.90;0.80;;;;;;;;;;5072632;28;20553;-61
2024/01/04 12:53:15;;;;;;;1.05;0.90;;;;;;;;;;5072537;28;20200;-60
2024/01/04 12:55:42;;;;;;;1.17;1.08;;;;;;;;;;5072237;28;20307;-60
2024/01/04 12:58:11;;;;;;;1.35;1.10;;;;;;;;;;5072316;28;20277;-61
2024/01/04 13:00:38;;;;;;;1.33;1.15;;;;;;;;;;5072314;28;20307;-61
2024/01/04 13:03:05;;;;;;;1.30;0.93;;;;;;;;;;5072483;28;20620;-60
2024/01/04 13:05:32;;;;;;;1.05;0.95;;;;;;;;;;5072248;28;20199;-61
2024/01/04 13:07:59;;;;;;;1.10;0.80;;;;;;;;;;5072330;28;20283;-61
2024/01/04 13:10:26;;;;;;;1.00;0.90;;;;;;;;;;5072238;28;20272;-61
2024/01/04 13:12:53;;;;;;;1.35;1.25;;;;;;;;;;5072366;28;20609;-62
2024/01/04 13:15:22;;;;;;;1.10;1.00;;;;;;;;;;5072331;28;20185;-61
2024/01/04 13:17:49;;;;;;;0.85;0.68;;;;;;;;;;5072237;28;20189;-61
2024/01/04 13:20:17;;;;;;;0.70;0.70;;;;;;;;;;5072130;28;20217;-62
2024/01/04 13:22:44;;;;;;;0.80;0.80;;;;;;;;;;5072076;28;20266;-62
2024/01/04 13:25:11;;;;;;;1.90;0.80;;;;;;;;;;5072081;28;20221;-62
2024/01/04 13:27:38;;;;;;;0.95;0.80;;;;;;;;;;5074674;28;20284;-62
2024/01/04 13:30:05;;;;;;;0.80;0.80;;;;;;;;;;5075853;28;20280;-62
2024/01/04 13:32:34;;;;;;;0.70;0.70;;;;;;;;;;5075884;28;20207;-65
2024/01/04 13:35:01;;;;;;;1.00;0.90;;;;;;;;;;5075684;28;20627;-62
2024/01/04 13:37:28;;;;;;;0.75;0.70;;;;;;;;;;5075586;28;20192;-63
2024/01/04 13:39:55;;;;;;;1.25;0.80;;;;;;;;;;5075185;28;20651;-63
2024/01/04 13:42:22;;;;;;;0.80;0.80;;;;;;;;;;5075447;28;20282;-62
2024/01/04 13:44:49;;;;;;;0.82;0.82;;;;;;;;;;5075480;28;20195;-65
2024/01/04 13:47:16;;;;;;;1.65;0.70;;;;;;;;;;5075398;28;20272;-62
2024/01/04 13:49:45;;;;;;;0.80;0.70;;;;;;;;;;5075208;28;20200;-61
2024/01/04 13:52:11;;;;;;;1.00;0.95;;;;;;;;;;5075254;28;20279;-62
2024/01/04 13:54:41;;;;;;;0.70;0.70;;;;;;;;;;5075040;28;20304;-61
2024/01/04 13:57:08;;;;;;;0.90;0.77;;;;;;;;;;5075362;28;20220;-61
2024/01/04 13:59:35;;;;;;;0.75;0.60;;;;;;;;;;5074830;28;20224;-62
2024/01/04 14:02:02;;;;;;;0.70;0.70;;;;;;;;;;5074929;28;20224;-61
2024/01/04 14:04:29;;;;;;;0.60;0.60;;;;;;;;;;5075217;28;20641;-61
2024/01/04 14:06:57;;;;;;;4.93;3.35;;;;;;;;;;5074900;28;20224;-61
2024/01/04 14:09:24;;;;;;;1.00;1.00;;;;;;;;;;5075193;28;20764;-65
2024/01/04 14:11:51;;;;;;;0.90;0.80;;;;;;;;;;5075191;28;20720;-61
2024/01/04 14:14:18;;;;;;;1.00;0.90;;;;;;;;;;5074978;28;20189;-61
2024/01/04 14:16:45;;;;;;;1.00;0.73;;;;;;;;;;5074955;28;20283;-62
2024/01/04 14:19:12;;;;;;;0.90;0.80;;;;;;;;;;5074832;28;20195;-62
2024/01/04 14:21:39;;;;;;;1.88;0.80;;;;;;;;;;5075018;28;20285;-62
2024/01/04 14:24:08;;;;;;;0.70;0.70;;;;;;;;;;5074983;28;20228;-62
2024/01/04 14:26:35;;;;;;;1.33;0.52;;;;;;;;;;5074576;28;20700;-62
2024/01/04 14:29:02;;;;;;;0.80;0.70;;;;;;;;;;5074953;28;20280;-62
2024/01/04 14:31:29;;;;;;;1.50;0.68;;;;;;;;;;5074288;28;20188;-62
2024/01/04 14:33:56;;;;;;;0.60;0.60;;;;;;;;;;5074622;28;20280;-61
2024/01/04 14:36:23;;;;;;;1.80;1.70;;;;;;;;;;5074783;28;20623;-63
2024/01/04 14:38:50;;;;;;;0.80;0.70;;;;;;;;;;5073890;28;20192;-60
2024/01/04 14:41:18;;;;;;;2.78;0.75;;;;;;;;;;5074534;28;20220;-61
2024/01/04 14:43:45;;;;;;;0.80;0.70;;;;;;;;;;5074453;28;20193;-60